Time;durP1;ratioP1;P1;durP2;ratioP2;P2;SDS_P1;SDS_P2;PMS_P1;PMS_P2;Temp;Humidity;BMP_temperature;BMP_pressure;BME280_temperature;BME280_humidity;BME280_pressure;Samples;Min_cycle;Max_cycle;Signal;HPM_P1;HPM_P2
2023/02/07 00:00:22;;;;;;;0.40;0.40;;;;;;;;;;5038318;28;20207;-65
2023/02/07 00:02:49;;;;;;;0.40;0.40;;;;;;;;;;5060362;28;20395;-65
2023/02/07 00:05:16;;;;;;;0.30;0.30;;;;;;;;;;5037778;28;20504;-64
2023/02/07 00:07:43;;;;;;;0.40;0.40;;;;;;;;;;5061194;28;20538;-65
2023/02/07 00:10:09;;;;;;;0.50;0.50;;;;;;;;;;5037000;28;20204;-64
2023/02/07 00:12:36;;;;;;;0.40;0.40;;;;;;;;;;5061538;28;20231;-65
2023/02/07 00:15:03;;;;;;;0.40;0.40;;;;;;;;;;5046484;28;20201;-67
2023/02/07 00:17:30;;;;;;;1.50;1.50;;;;;;;;;;5051821;28;20558;-68
2023/02/07 00:19:56;;;;;;;0.40;0.40;;;;;;;;;;5046836;28;20510;-66
2023/02/07 00:22:24;;;;;;;0.43;0.43;;;;;;;;;;5051682;28;20244;-65
2023/02/07 00:24:50;;;;;;;0.30;0.30;;;;;;;;;;5046396;28;20217;-65
2023/02/07 00:27:16;;;;;;;0.40;0.40;;;;;;;;;;5051699;28;20440;-65
2023/02/07 00:29:43;;;;;;;0.40;0.40;;;;;;;;;;5046172;28;20219;-65
2023/02/07 00:32:09;;;;;;;0.30;0.30;;;;;;;;;;5051562;28;20484;-65
2023/02/07 00:34:36;;;;;;;0.60;0.60;;;;;;;;;;5046528;28;20211;-64
2023/02/07 00:37:02;;;;;;;0.47;0.47;;;;;;;;;;5050865;28;20281;-65
2023/02/07 00:39:30;;;;;;;0.40;0.40;;;;;;;;;;5046753;28;20535;-66
2023/02/07 00:41:57;;;;;;;0.40;0.40;;;;;;;;;;5050155;28;20274;-65
2023/02/07 00:44:23;;;;;;;0.40;0.40;;;;;;;;;;5047580;28;20451;-66
2023/02/07 00:46:49;;;;;;;1.67;1.67;;;;;;;;;;5049019;28;20248;-65
2023/02/07 00:49:16;;;;;;;0.40;0.40;;;;;;;;;;5048487;28;20396;-67
2023/02/07 00:51:42;;;;;;;1.30;1.30;;;;;;;;;;5048012;28;20628;-67
2023/02/07 00:54:09;;;;;;;3.20;3.10;;;;;;;;;;5049352;28;20215;-66
2023/02/07 00:56:36;;;;;;;0.80;0.80;;;;;;;;;;5046884;28;20258;-67
2023/02/07 00:59:03;;;;;;;0.70;0.70;;;;;;;;;;5050178;28;20410;-66
2023/02/07 01:01:29;;;;;;;0.40;0.40;;;;;;;;;;5046021;28;20243;-65
2023/02/07 01:03:56;;;;;;;0.40;0.40;;;;;;;;;;5050848;28;20214;-65
2023/02/07 01:06:22;;;;;;;0.40;0.40;;;;;;;;;;5045103;28;20243;-65
2023/02/07 01:08:49;;;;;;;0.40;0.40;;;;;;;;;;5051315;28;20207;-65
2023/02/07 01:11:17;;;;;;;0.40;0.40;;;;;;;;;;5044104;28;20365;-66
2023/02/07 01:13:45;;;;;;;0.40;0.40;;;;;;;;;;5052102;28;20212;-65
2023/02/07 01:16:18;;;;;;;0.40;0.40;;;;;;;;;;5043794;28;20562;-66
2023/02/07 01:18:45;;;;;;;0.40;0.40;;;;;;;;;;5051935;28;20246;-65
2023/02/07 01:21:15;;;;;;;0.30;0.30;;;;;;;;;;5043303;28;20239;-65
2023/02/07 01:23:41;;;;;;;0.40;0.40;;;;;;;;;;5052363;28;20393;-65
2023/02/07 01:26:08;;;;;;;0.40;0.40;;;;;;;;;;5042881;28;20246;-65
2023/02/07 01:28:34;;;;;;;1.90;1.80;;;;;;;;;;5052613;28;20215;-65
2023/02/07 01:31:06;;;;;;;0.40;0.40;;;;;;;;;;5041852;28;20243;-65
2023/02/07 01:33:32;;;;;;;0.40;0.40;;;;;;;;;;5053055;28;20193;-64
2023/02/07 01:35:58;;;;;;;5.00;1.73;;;;;;;;;;5041604;28;20581;-65
2023/02/07 01:38:25;;;;;;;0.43;0.43;;;;;;;;;;5054177;28;20240;-65
2023/02/07 01:40:51;;;;;;;0.40;0.40;;;;;;;;;;5040642;28;20262;-66
2023/02/07 01:43:19;;;;;;;0.40;0.40;;;;;;;;;;5055031;28;20235;-66
2023/02/07 01:45:46;;;;;;;0.40;0.40;;;;;;;;;;5039708;28;20334;-66
2023/02/07 01:48:15;;;;;;;0.37;0.37;;;;;;;;;;5055243;28;20234;-67
2023/02/07 01:50:43;;;;;;;0.40;0.40;;;;;;;;;;5038623;28;20261;-65
2023/02/07 01:53:12;;;;;;;0.40;0.40;;;;;;;;;;5055450;28;20232;-65
2023/02/07 01:55:39;;;;;;;0.83;0.83;;;;;;;;;;5038630;28;20477;-66
2023/02/07 01:58:06;;;;;;;0.40;0.40;;;;;;;;;;5056320;28;20231;-65
2023/02/07 02:00:32;;;;;;;0.40;0.40;;;;;;;;;;5037565;28;20289;-65
2023/02/07 02:02:59;;;;;;;0.40;0.40;;;;;;;;;;5057000;28;20196;-65
2023/02/07 02:05:27;;;;;;;0.40;0.40;;;;;;;;;;5036708;28;20235;-65
2023/02/07 02:07:53;;;;;;;0.40;0.40;;;;;;;;;;5057418;28;20234;-66
2023/02/07 02:10:21;;;;;;;0.40;0.40;;;;;;;;;;5035971;28;20242;-65
2023/02/07 02:12:53;;;;;;;0.50;0.50;;;;;;;;;;5058155;28;20219;-65
2023/02/07 02:15:28;;;;;;;1.10;1.10;;;;;;;;;;5035889;28;20203;-65
2023/02/07 02:18:00;;;;;;;0.40;0.40;;;;;;;;;;5057042;28;20194;-67
2023/02/07 02:20:48;;;;;;;0.40;0.40;;;;;;;;;;5036640;28;20321;-66
2023/02/07 02:23:17;;;;;;;0.40;0.40;;;;;;;;;;5054617;28;20525;-65
2023/02/07 02:25:52;;;;;;;0.40;0.40;;;;;;;;;;5038671;28;20259;-67
2023/02/07 02:28:31;;;;;;;0.43;0.43;;;;;;;;;;5053912;28;20218;-65
2023/02/07 02:31:10;;;;;;;0.40;0.40;;;;;;;;;;5040099;28;20465;-65
2023/02/07 02:33:42;;;;;;;0.40;0.40;;;;;;;;;;5051548;28;20202;-64
2023/02/07 02:36:10;;;;;;;0.40;0.40;;;;;;;;;;5041763;28;20247;-65
2023/02/07 02:38:43;;;;;;;1.03;1.03;;;;;;;;;;5051202;28;20235;-66
2023/02/07 02:41:11;;;;;;;0.67;0.67;;;;;;;;;;5041719;28;20341;-65
2023/02/07 02:43:41;;;;;;;0.40;0.40;;;;;;;;;;5051169;28;20219;-66
2023/02/07 02:46:11;;;;;;;0.40;0.40;;;;;;;;;;5041434;28;20243;-66
2023/02/07 02:48:37;;;;;;;0.80;0.80;;;;;;;;;;5050997;28;20239;-66
2023/02/07 02:51:05;;;;;;;0.40;0.40;;;;;;;;;;5040903;28;20246;-66
2023/02/07 02:53:32;;;;;;;0.40;0.40;;;;;;;;;;5051544;28;20371;-65
2023/02/07 02:56:13;;;;;;;0.40;0.40;;;;;;;;;;5040199;28;20242;-66
2023/02/07 02:58:45;;;;;;;0.40;0.40;;;;;;;;;;5047693;28;20207;-65
2023/02/07 03:01:16;;;;;;;1.67;1.60;;;;;;;;;;5041789;28;20439;-65
2023/02/07 03:03:57;;;;;;;0.40;0.40;;;;;;;;;;5049534;28;20191;-65
2023/02/07 03:06:33;;;;;;;3.13;3.03;;;;;;;;;;5043191;28;20242;-66
2023/02/07 03:09:03;;;;;;;0.60;0.60;;;;;;;;;;5047988;28;20187;-66
2023/02/07 03:11:30;;;;;;;2.20;2.20;;;;;;;;;;5043839;28;20266;-66
2023/02/07 03:13:59;;;;;;;0.50;0.50;;;;;;;;;;5048474;28;20208;-66
2023/02/07 03:16:30;;;;;;;0.40;0.40;;;;;;;;;;5043352;28;20248;-67
2023/02/07 03:18:59;;;;;;;0.50;0.50;;;;;;;;;;5048132;28;20194;-66
2023/02/07 03:21:28;;;;;;;0.60;0.60;;;;;;;;;;5043501;28;20245;-65
2023/02/07 03:23:57;;;;;;;0.70;0.70;;;;;;;;;;5048444;28;20207;-64
2023/02/07 03:26:24;;;;;;;2.03;2.00;;;;;;;;;;5043063;28;20292;-66
2023/02/07 03:28:51;;;;;;;0.40;0.40;;;;;;;;;;5048826;28;20214;-65
2023/02/07 03:31:19;;;;;;;5.30;4.90;;;;;;;;;;5042260;28;20254;-65
2023/02/07 03:33:46;;;;;;;1.23;1.23;;;;;;;;;;5049563;28;20265;-65
2023/02/07 03:36:16;;;;;;;0.70;0.70;;;;;;;;;;5041426;28;20247;-65
2023/02/07 03:38:42;;;;;;;0.40;0.40;;;;;;;;;;5050047;28;20500;-65
2023/02/07 03:41:13;;;;;;;0.80;0.80;;;;;;;;;;5041031;28;20243;-65
2023/02/07 03:43:40;;;;;;;0.50;0.50;;;;;;;;;;5050305;28;20503;-65
2023/02/07 03:46:08;;;;;;;0.40;0.40;;;;;;;;;;5040507;28;20252;-65
2023/02/07 03:48:34;;;;;;;0.50;0.50;;;;;;;;;;5050653;28;20241;-65
2023/02/07 03:51:00;;;;;;;0.40;0.40;;;;;;;;;;5039878;28;20566;-65
2023/02/07 03:53:27;;;;;;;1.47;1.37;;;;;;;;;;5051840;28;20476;-66
2023/02/07 03:55:53;;;;;;;0.40;0.40;;;;;;;;;;5039077;28;20269;-65
2023/02/07 03:58:21;;;;;;;1.00;1.00;;;;;;;;;;5052528;28;20207;-65
2023/02/07 04:00:47;;;;;;;0.50;0.50;;;;;;;;;;5038030;28;20257;-65
2023/02/07 04:03:14;;;;;;;0.50;0.50;;;;;;;;;;5053332;28;20411;-65
2023/02/07 04:05:40;;;;;;;0.50;0.50;;;;;;;;;;5037209;28;20242;-65
2023/02/07 04:08:06;;;;;;;0.70;0.70;;;;;;;;;;5054079;28;20238;-66
2023/02/07 04:10:33;;;;;;;1.07;1.07;;;;;;;;;;5036315;28;20447;-65
2023/02/07 04:12:59;;;;;;;0.50;0.50;;;;;;;;;;5055027;28;20231;-65
2023/02/07 04:15:27;;;;;;;0.50;0.50;;;;;;;;;;5037086;28;20207;-65
2023/02/07 04:17:53;;;;;;;1.97;1.87;;;;;;;;;;5059387;28;20207;-64
2023/02/07 04:20:20;;;;;;;0.50;0.50;;;;;;;;;;5037706;28;20232;-65
2023/02/07 04:22:46;;;;;;;0.97;0.97;;;;;;;;;;5060431;28;20191;-65
2023/02/07 04:25:13;;;;;;;0.40;0.40;;;;;;;;;;5036763;28;20207;-64
2023/02/07 04:27:39;;;;;;;2.30;2.23;;;;;;;;;;5060957;28;20227;-65
2023/02/07 04:30:06;;;;;;;0.90;0.90;;;;;;;;;;5046017;28;20244;-65
2023/02/07 04:32:34;;;;;;;2.03;2.03;;;;;;;;;;5034800;28;20235;-65
2023/02/07 04:35:00;;;;;;;0.43;0.43;;;;;;;;;;5046353;28;20206;-65
2023/02/07 04:37:26;;;;;;;0.50;0.50;;;;;;;;;;5051575;28;20242;-67
2023/02/07 04:39:53;;;;;;;0.40;0.40;;;;;;;;;;5046017;28;20239;-66
2023/02/07 04:42:19;;;;;;;0.50;0.50;;;;;;;;;;5051294;28;20241;-67
2023/02/07 04:44:45;;;;;;;0.40;0.40;;;;;;;;;;5046224;28;20206;-64
2023/02/07 04:47:12;;;;;;;0.40;0.40;;;;;;;;;;5051352;28;20267;-65
2023/02/07 04:49:40;;;;;;;0.50;0.50;;;;;;;;;;5046169;28;20419;-65
2023/02/07 04:52:06;;;;;;;0.50;0.50;;;;;;;;;;5051062;28;20256;-65
2023/02/07 04:54:33;;;;;;;0.50;0.50;;;;;;;;;;5045834;28;20207;-65
2023/02/07 04:56:59;;;;;;;0.50;0.50;;;;;;;;;;5049968;28;20268;-65
2023/02/07 04:59:25;;;;;;;0.73;0.73;;;;;;;;;;5046985;28;20548;-65
2023/02/07 05:01:52;;;;;;;0.60;0.60;;;;;;;;;;5048811;28;20240;-65
2023/02/07 05:04:18;;;;;;;0.80;0.80;;;;;;;;;;5047698;28;20505;-64
2023/02/07 05:06:46;;;;;;;0.47;0.47;;;;;;;;;;5047958;28;20241;-66
2023/02/07 05:09:13;;;;;;;0.50;0.50;;;;;;;;;;5048275;28;20211;-65
2023/02/07 05:11:39;;;;;;;0.80;0.80;;;;;;;;;;5047124;28;20561;-66
2023/02/07 05:14:05;;;;;;;0.50;0.50;;;;;;;;;;5049231;28;20565;-66
2023/02/07 05:16:32;;;;;;;1.03;1.03;;;;;;;;;;5045849;28;20264;-65
2023/02/07 05:18:58;;;;;;;0.50;0.50;;;;;;;;;;5049933;28;20239;-66
2023/02/07 05:21:24;;;;;;;0.50;0.50;;;;;;;;;;5045038;28;20252;-66
2023/02/07 05:23:52;;;;;;;0.50;0.50;;;;;;;;;;5050934;28;20253;-66
2023/02/07 05:26:18;;;;;;;0.50;0.50;;;;;;;;;;5043221;28;20242;-66
2023/02/07 05:28:45;;;;;;;2.00;1.63;;;;;;;;;;5051225;28;20214;-66
2023/02/07 05:31:11;;;;;;;0.77;0.77;;;;;;;;;;5043336;28;20246;-66
2023/02/07 05:33:37;;;;;;;0.50;0.50;;;;;;;;;;5052354;28;20613;-64
2023/02/07 05:36:03;;;;;;;0.50;0.50;;;;;;;;;;5042252;28;20251;-65
2023/02/07 05:38:30;;;;;;;0.50;0.50;;;;;;;;;;5053004;28;20250;-64
2023/02/07 05:40:58;;;;;;;0.50;0.50;;;;;;;;;;5041275;28;20462;-65
2023/02/07 05:43:25;;;;;;;0.50;0.50;;;;;;;;;;5054162;28;20209;-66
2023/02/07 05:45:51;;;;;;;0.50;0.50;;;;;;;;;;5040170;28;20245;-65
2023/02/07 05:48:18;;;;;;;0.60;0.60;;;;;;;;;;5054443;28;20203;-65
2023/02/07 05:50:44;;;;;;;0.73;0.73;;;;;;;;;;5039367;28;20246;-65
2023/02/07 05:53:11;;;;;;;0.40;0.40;;;;;;;;;;5055495;28;20242;-67
2023/02/07 05:55:38;;;;;;;0.43;0.43;;;;;;;;;;5038303;28;20236;-66
2023/02/07 05:58:05;;;;;;;0.50;0.50;;;;;;;;;;5056514;28;20203;-65
2023/02/07 06:00:32;;;;;;;0.50;0.50;;;;;;;;;;5036678;28;20248;-66
2023/02/07 06:02:59;;;;;;;0.50;0.50;;;;;;;;;;5057735;28;20191;-67
2023/02/07 06:05:30;;;;;;;0.50;0.50;;;;;;;;;;5036563;28;20211;-66
2023/02/07 06:07:57;;;;;;;1.10;1.10;;;;;;;;;;5057364;28;20225;-65
2023/02/07 06:10:23;;;;;;;1.13;1.13;;;;;;;;;;5036045;28;20211;-66
2023/02/07 06:12:50;;;;;;;0.47;0.47;;;;;;;;;;5058210;28;20672;-66
2023/02/07 06:15:18;;;;;;;0.50;0.50;;;;;;;;;;5035185;28;20278;-66
2023/02/07 06:17:45;;;;;;;2.03;1.93;;;;;;;;;;5058373;28;20200;-66
2023/02/07 06:20:12;;;;;;;0.90;0.90;;;;;;;;;;5034859;28;20233;-66
2023/02/07 06:22:38;;;;;;;2.60;2.50;;;;;;;;;;5059010;28;20234;-67
2023/02/07 06:25:10;;;;;;;11.30;2.47;;;;;;;;;;5044133;28;20229;-66
2023/02/07 06:27:36;;;;;;;0.50;0.50;;;;;;;;;;5033166;28;20206;-65
2023/02/07 06:30:03;;;;;;;3.20;1.77;;;;;;;;;;5043903;28;20214;-65
2023/02/07 06:32:31;;;;;;;0.50;0.50;;;;;;;;;;5049152;28;20291;-66
2023/02/07 06:34:57;;;;;;;0.57;0.57;;;;;;;;;;5044015;28;20245;-66
2023/02/07 06:37:24;;;;;;;0.50;0.50;;;;;;;;;;5048972;28;20238;-66
2023/02/07 06:39:50;;;;;;;2.63;1.13;;;;;;;;;;5044198;28;20208;-65
2023/02/07 06:42:16;;;;;;;9.93;8.23;;;;;;;;;;5049193;28;20241;-66
2023/02/07 06:44:43;;;;;;;0.50;0.50;;;;;;;;;;5043770;28;20204;-65
2023/02/07 06:47:09;;;;;;;0.40;0.40;;;;;;;;;;5049045;28;20262;-66
2023/02/07 06:49:37;;;;;;;0.93;0.93;;;;;;;;;;5043655;28;20511;-66
2023/02/07 06:52:04;;;;;;;3.57;3.47;;;;;;;;;;5048529;28;20252;-67
2023/02/07 06:54:30;;;;;;;0.50;0.50;;;;;;;;;;5043989;28;20235;-65
2023/02/07 06:56:56;;;;;;;2.10;2.10;;;;;;;;;;5047382;28;20266;-66
2023/02/07 06:59:23;;;;;;;0.50;0.50;;;;;;;;;;5045158;28;20247;-67
2023/02/07 07:01:49;;;;;;;0.40;0.40;;;;;;;;;;5046451;28;20293;-66
2023/02/07 07:04:17;;;;;;;0.40;0.40;;;;;;;;;;5046116;28;20241;-65
2023/02/07 07:06:44;;;;;;;1.37;1.37;;;;;;;;;;5045436;28;20242;-66
2023/02/07 07:09:12;;;;;;;0.40;0.40;;;;;;;;;;5046302;28;20206;-66
2023/02/07 07:11:41;;;;;;;0.40;0.40;;;;;;;;;;5045167;28;20473;-65
2023/02/07 07:14:08;;;;;;;0.40;0.40;;;;;;;;;;5046677;28;20290;-66
2023/02/07 07:16:34;;;;;;;0.40;0.40;;;;;;;;;;5044469;28;20487;-65
2023/02/07 07:19:01;;;;;;;0.40;0.40;;;;;;;;;;5047881;28;20246;-65
2023/02/07 07:21:27;;;;;;;0.40;0.40;;;;;;;;;;5043646;28;20285;-66
2023/02/07 07:23:55;;;;;;;0.40;0.40;;;;;;;;;;5048403;28;20203;-66
2023/02/07 07:26:21;;;;;;;0.40;0.40;;;;;;;;;;5042687;28;20500;-65
2023/02/07 07:28:48;;;;;;;0.40;0.40;;;;;;;;;;5049371;28;20223;-66
2023/02/07 07:31:15;;;;;;;0.50;0.50;;;;;;;;;;5041619;28;20250;-67
2023/02/07 07:33:41;;;;;;;0.40;0.40;;;;;;;;;;5049799;28;20258;-66
2023/02/07 07:36:08;;;;;;;0.90;0.90;;;;;;;;;;5040898;28;20451;-66
2023/02/07 07:38:35;;;;;;;1.90;1.90;;;;;;;;;;5050656;28;20214;-65
2023/02/07 07:41:03;;;;;;;0.77;0.77;;;;;;;;;;5040173;28;20241;-66
2023/02/07 07:43:29;;;;;;;0.50;0.50;;;;;;;;;;5051461;28;20207;-67
2023/02/07 07:45:58;;;;;;;0.40;0.40;;;;;;;;;;5039282;28;20249;-66
2023/02/07 07:48:25;;;;;;;0.93;0.93;;;;;;;;;;5051970;28;20275;-66
2023/02/07 07:50:52;;;;;;;2.87;2.70;;;;;;;;;;5041675;28;20566;-66
2023/02/07 07:53:19;;;;;;;0.77;0.77;;;;;;;;;;5056889;28;20257;-65
2023/02/07 07:55:48;;;;;;;0.80;0.80;;;;;;;;;;5041787;28;20261;-65
2023/02/07 07:58:16;;;;;;;0.50;0.50;;;;;;;;;;5057053;28;20214;-66
2023/02/07 08:00:42;;;;;;;1.00;1.00;;;;;;;;;;5041121;28;20253;-65
2023/02/07 08:03:09;;;;;;;0.40;0.40;;;;;;;;;;5057630;28;20247;-66
2023/02/07 08:05:36;;;;;;;0.77;0.77;;;;;;;;;;5040174;28;20246;-65
2023/02/07 08:08:02;;;;;;;1.47;1.37;;;;;;;;;;5058756;28;20212;-66
2023/02/07 08:10:29;;;;;;;0.90;0.90;;;;;;;;;;5039597;28;20570;-65
2023/02/07 08:12:56;;;;;;;4.30;3.90;;;;;;;;;;5059623;28;20230;-65
2023/02/07 08:15:24;;;;;;;0.40;0.40;;;;;;;;;;5038594;28;20258;-71
2023/02/07 08:17:50;;;;;;;1.57;1.37;;;;;;;;;;5059900;28;20204;-68
2023/02/07 08:20:17;;;;;;;0.40;0.40;;;;;;;;;;5037849;28;20247;-68
2023/02/07 08:22:43;;;;;;;0.50;0.50;;;;;;;;;;5060634;28;20196;-69
2023/02/07 08:25:10;;;;;;;1.53;1.53;;;;;;;;;;5036600;28;20203;-70
2023/02/07 08:27:37;;;;;;;1.53;1.53;;;;;;;;;;5061693;28;20431;-69
2023/02/07 08:30:04;;;;;;;0.90;0.90;;;;;;;;;;5046199;28;20219;-61
2023/02/07 08:32:32;;;;;;;0.40;0.40;;;;;;;;;;5051789;28;20243;-66
2023/02/07 08:34:58;;;;;;;1.33;1.33;;;;;;;;;;5046549;28;20267;-65
2023/02/07 08:37:24;;;;;;;0.63;0.63;;;;;;;;;;5051554;28;20265;-66
2023/02/07 08:39:51;;;;;;;0.40;0.40;;;;;;;;;;5046509;28;20242;-66
2023/02/07 08:42:18;;;;;;;0.40;0.40;;;;;;;;;;5051538;28;20309;-67
2023/02/07 08:44:45;;;;;;;1.63;1.63;;;;;;;;;;5046136;28;20204;-66
2023/02/07 08:47:11;;;;;;;0.40;0.40;;;;;;;;;;5051400;28;20265;-67
2023/02/07 08:49:39;;;;;;;0.40;0.40;;;;;;;;;;5046341;28;20591;-66
2023/02/07 08:52:06;;;;;;;0.40;0.40;;;;;;;;;;5051063;28;20270;-67
2023/02/07 08:54:33;;;;;;;1.30;1.30;;;;;;;;;;5046026;28;20235;-66
2023/02/07 08:56:59;;;;;;;0.50;0.50;;;;;;;;;;5050309;28;20249;-66
2023/02/07 08:59:25;;;;;;;0.60;0.60;;;;;;;;;;5046800;28;20271;-68
2023/02/07 09:01:52;;;;;;;0.50;0.50;;;;;;;;;;5049197;28;20418;-68
2023/02/07 09:04:18;;;;;;;0.97;0.97;;;;;;;;;;5047589;28;20203;-66
2023/02/07 09:06:46;;;;;;;0.40;0.40;;;;;;;;;;5048154;28;20247;-67
2023/02/07 09:09:13;;;;;;;7.17;6.63;;;;;;;;;;5048387;28;20245;-67
2023/02/07 09:11:39;;;;;;;0.40;0.40;;;;;;;;;;5047417;28;20285;-68
2023/02/07 09:14:06;;;;;;;0.40;0.40;;;;;;;;;;5049022;28;20231;-69
2023/02/07 09:16:32;;;;;;;1.03;1.03;;;;;;;;;;5046287;28;20255;-67
2023/02/07 09:18:58;;;;;;;1.30;1.27;;;;;;;;;;5050217;28;20204;-66
2023/02/07 09:21:25;;;;;;;0.40;0.40;;;;;;;;;;5045310;28;20334;-65
2023/02/07 09:23:53;;;;;;;0.40;0.40;;;;;;;;;;5050852;28;20201;-68
2023/02/07 09:26:20;;;;;;;0.40;0.40;;;;;;;;;;5044519;28;20239;-67
2023/02/07 09:28:47;;;;;;;0.40;0.40;;;;;;;;;;5051151;28;20232;-69
2023/02/07 09:31:14;;;;;;;0.40;0.40;;;;;;;;;;5043852;28;20446;-66
2023/02/07 09:33:41;;;;;;;0.50;0.50;;;;;;;;;;5051851;28;20204;-68
2023/02/07 09:36:15;;;;;;;0.40;0.40;;;;;;;;;;5042963;28;20251;-67
2023/02/07 09:38:43;;;;;;;0.40;0.40;;;;;;;;;;5051990;28;20265;-65
2023/02/07 09:41:16;;;;;;;7.53;7.03;;;;;;;;;;5043148;28;20466;-65
2023/02/07 09:43:51;;;;;;;0.50;0.50;;;;;;;;;;5051829;28;20193;-66
2023/02/07 09:46:19;;;;;;;2.20;2.00;;;;;;;;;;5043997;28;20254;-65
2023/02/07 09:48:47;;;;;;;1.47;1.47;;;;;;;;;;5051397;28;20236;-64
2023/02/07 09:51:15;;;;;;;0.30;0.30;;;;;;;;;;5043163;28;20247;-65
2023/02/07 09:53:43;;;;;;;2.63;2.53;;;;;;;;;;5051255;28;20205;-66
2023/02/07 09:56:10;;;;;;;0.40;0.40;;;;;;;;;;5042695;28;20239;-66
2023/02/07 09:58:42;;;;;;;0.30;0.30;;;;;;;;;;5052273;28;20380;-65
2023/02/07 10:01:11;;;;;;;0.67;0.60;;;;;;;;;;5042513;28;20517;-66
2023/02/07 10:03:43;;;;;;;0.40;0.40;;;;;;;;;;5052023;28;20432;-64
2023/02/07 10:06:13;;;;;;;1.70;1.60;;;;;;;;;;5042763;28;20442;-65
2023/02/07 10:08:40;;;;;;;2.83;2.73;;;;;;;;;;5051410;28;20276;-63
2023/02/07 10:11:13;;;;;;;0.40;0.40;;;;;;;;;;5042121;28;20243;-64
2023/02/07 10:13:50;;;;;;;2.67;2.47;;;;;;;;;;5051106;28;20501;-64
2023/02/07 10:16:23;;;;;;;2.83;0.80;;;;;;;;;;5043363;28;20446;-64
2023/02/07 10:18:54;;;;;;;3.50;1.80;;;;;;;;;;5050320;28;20489;-64
2023/02/07 10:21:27;;;;;;;0.50;0.50;;;;;;;;;;5043741;28;20240;-63
2023/02/07 10:24:05;;;;;;;0.40;0.40;;;;;;;;;;5049728;28;20200;-64
2023/02/07 10:26:36;;;;;;;4.73;4.37;;;;;;;;;;5044993;28;20252;-66
2023/02/07 10:29:09;;;;;;;1.67;1.60;;;;;;;;;;5048032;28;20215;-64
2023/02/07 10:31:37;;;;;;;0.50;0.50;;;;;;;;;;5045430;28;20285;-64
2023/02/07 10:34:09;;;;;;;0.77;0.77;;;;;;;;;;5047571;28;20307;-63
2023/02/07 10:36:36;;;;;;;0.40;0.40;;;;;;;;;;5045682;28;20255;-63
2023/02/07 10:39:04;;;;;;;0.50;0.50;;;;;;;;;;5048310;28;20236;-64
2023/02/07 10:41:34;;;;;;;0.40;0.40;;;;;;;;;;5044658;28;20446;-63
2023/02/07 10:44:00;;;;;;;0.40;0.40;;;;;;;;;;5048403;28;20371;-64
2023/02/07 10:46:28;;;;;;;2.13;2.10;;;;;;;;;;5044052;28;20449;-65
2023/02/07 10:48:55;;;;;;;1.37;1.37;;;;;;;;;;5049175;28;20275;-66
2023/02/07 10:51:25;;;;;;;1.83;1.73;;;;;;;;;;5043293;28;20297;-65
2023/02/07 10:54:01;;;;;;;2.30;2.20;;;;;;;;;;5049435;28;20220;-64
2023/02/07 10:56:36;;;;;;;0.67;0.67;;;;;;;;;;5044646;28;20581;-64
2023/02/07 10:59:02;;;;;;;0.70;0.70;;;;;;;;;;5051644;28;20395;-61
2023/02/07 11:01:31;;;;;;;0.33;0.33;;;;;;;;;;5044158;28;20259;-61
2023/02/07 11:03:58;;;;;;;0.40;0.40;;;;;;;;;;5048590;28;20500;-60
2023/02/07 11:06:25;;;;;;;2.67;2.57;;;;;;;;;;5043442;28;20411;-59
2023/02/07 11:09:10;;;;;;;0.30;0.30;;;;;;;;;;5048962;28;20276;-61
2023/02/07 11:11:39;;;;;;;0.90;0.90;;;;;;;;;;5044817;28;20303;-61
2023/02/07 11:14:06;;;;;;;0.40;0.40;;;;;;;;;;5047243;28;20377;-61
2023/02/07 11:16:34;;;;;;;0.60;0.60;;;;;;;;;;5044370;28;20240;-60
2023/02/07 11:19:04;;;;;;;0.93;0.93;;;;;;;;;;5047717;28;20284;-61
2023/02/07 11:21:34;;;;;;;5.13;4.83;;;;;;;;;;5044074;28;20281;-61
2023/02/07 11:24:03;;;;;;;0.30;0.30;;;;;;;;;;5048067;28;20204;-61
2023/02/07 11:26:30;;;;;;;0.37;0.37;;;;;;;;;;5048118;28;20240;-61
2023/02/07 11:29:02;;;;;;;0.40;0.40;;;;;;;;;;5052361;28;20266;-61
2023/02/07 11:31:30;;;;;;;0.30;0.30;;;;;;;;;;5047865;28;20248;-61
2023/02/07 11:34:08;;;;;;;0.30;0.30;;;;;;;;;;5052529;28;20377;-63
2023/02/07 11:36:34;;;;;;;0.40;0.40;;;;;;;;;;5048511;28;20248;-59
2023/02/07 11:39:00;;;;;;;2.67;2.53;;;;;;;;;;5051909;28;20494;-62
2023/02/07 11:41:28;;;;;;;1.13;1.13;;;;;;;;;;5047351;28;20289;-61
2023/02/07 11:43:56;;;;;;;0.30;0.30;;;;;;;;;;5052573;28;20227;-60
2023/02/07 11:46:24;;;;;;;0.90;0.90;;;;;;;;;;5046997;28;20298;-60
2023/02/07 11:48:53;;;;;;;0.30;0.30;;;;;;;;;;5053532;28;20404;-62
2023/02/07 11:51:22;;;;;;;0.30;0.30;;;;;;;;;;5046272;28;20277;-60
2023/02/07 11:53:50;;;;;;;3.13;1.43;;;;;;;;;;5052910;28;20271;-63
2023/02/07 11:56:24;;;;;;;0.40;0.40;;;;;;;;;;5045831;28;20243;-62
2023/02/07 11:58:51;;;;;;;0.40;0.40;;;;;;;;;;5052545;28;20244;-61
2023/02/07 12:01:22;;;;;;;0.30;0.30;;;;;;;;;;5045355;28;20239;-61
2023/02/07 12:03:51;;;;;;;0.50;0.50;;;;;;;;;;5053337;28;20204;-61
2023/02/07 12:06:22;;;;;;;0.57;0.57;;;;;;;;;;5045726;28;20251;-61
2023/02/07 12:08:51;;;;;;;0.30;0.30;;;;;;;;;;5052877;28;20244;-62
2023/02/07 12:11:19;;;;;;;6.93;4.57;;;;;;;;;;5046063;28;20241;-62
2023/02/07 12:13:48;;;;;;;1.90;1.80;;;;;;;;;;5053023;28;20374;-62
2023/02/07 12:16:17;;;;;;;0.50;0.50;;;;;;;;;;5044920;28;20461;-62
2023/02/07 12:18:52;;;;;;;3.50;3.20;;;;;;;;;;5053074;28;20275;-62
2023/02/07 12:21:19;;;;;;;0.30;0.30;;;;;;;;;;5045586;28;20273;-61
2023/02/07 12:23:48;;;;;;;0.70;0.70;;;;;;;;;;5052894;28;20205;-61
2023/02/07 12:26:20;;;;;;;0.30;0.30;;;;;;;;;;5044781;28;20259;-62
2023/02/07 12:28:49;;;;;;;0.30;0.30;;;;;;;;;;5052610;28;20247;-63
2023/02/07 12:31:19;;;;;;;2.20;2.13;;;;;;;;;;5045070;28;20310;-61
2023/02/07 12:33:50;;;;;;;1.80;1.80;;;;;;;;;;5052575;28;20272;-62
2023/02/07 12:36:20;;;;;;;0.30;0.30;;;;;;;;;;5044610;28;20252;-61
2023/02/07 12:38:50;;;;;;;1.40;1.30;;;;;;;;;;5052309;28;20255;-62
2023/02/07 12:41:23;;;;;;;0.30;0.30;;;;;;;;;;5045045;28;20256;-61
2023/02/07 12:43:57;;;;;;;0.60;0.60;;;;;;;;;;5051995;28;20570;-62
2023/02/07 12:46:30;;;;;;;0.30;0.30;;;;;;;;;;5045857;28;20346;-61
2023/02/07 12:49:05;;;;;;;0.30;0.30;;;;;;;;;;5050884;28;20277;-61
2023/02/07 12:51:37;;;;;;;0.30;0.30;;;;;;;;;;5046706;28;20303;-62
2023/02/07 12:54:11;;;;;;;5.40;5.10;;;;;;;;;;5049935;28;20273;-61
2023/02/07 12:56:49;;;;;;;0.30;0.30;;;;;;;;;;5047400;28;20464;-61
2023/02/07 12:59:20;;;;;;;2.20;2.10;;;;;;;;;;5048321;28;20243;-61
2023/02/07 13:01:49;;;;;;;0.60;0.60;;;;;;;;;;5048374;28;20424;-61
2023/02/07 13:04:36;;;;;;;0.77;0.77;;;;;;;;;;5048020;28;20277;-61
2023/02/07 13:07:09;;;;;;;0.70;0.70;;;;;;;;;;5050309;28;20264;-61
2023/02/07 13:09:40;;;;;;;1.00;1.00;;;;;;;;;;5045587;28;20282;-62
2023/02/07 13:12:13;;;;;;;0.30;0.30;;;;;;;;;;5050709;28;20268;-61
2023/02/07 13:14:47;;;;;;;0.93;0.93;;;;;;;;;;5045477;28;20193;-61
2023/02/07 13:17:34;;;;;;;0.97;0.97;;;;;;;;;;5050747;28;20252;-62
2023/02/07 13:20:09;;;;;;;0.30;0.30;;;;;;;;;;5043506;28;20243;-61
2023/02/07 13:22:38;;;;;;;0.30;0.30;;;;;;;;;;5034056;28;20204;-61
2023/02/07 13:25:08;;;;;;;0.30;0.30;;;;;;;;;;5045525;28;20400;-61
2023/02/07 13:27:36;;;;;;;2.00;2.00;;;;;;;;;;5033943;28;20212;-61
2023/02/07 13:30:03;;;;;;;0.27;0.27;;;;;;;;;;5045182;28;20247;-62
2023/02/07 13:32:29;;;;;;;0.30;0.30;;;;;;;;;;5050353;28;20241;-61
2023/02/07 13:34:58;;;;;;;0.30;0.30;;;;;;;;;;5045042;28;22101;-60
2023/02/07 13:37:28;;;;;;;14.43;4.93;;;;;;;;;;5050298;28;20240;-61
2023/02/07 13:39:57;;;;;;;1.70;0.83;;;;;;;;;;5045354;28;20193;-61
2023/02/07 13:42:27;;;;;;;0.63;0.63;;;;;;;;;;5050273;28;20259;-61
2023/02/07 13:44:57;;;;;;;0.87;0.87;;;;;;;;;;5045066;28;20272;-62
2023/02/07 13:47:45;;;;;;;0.30;0.30;;;;;;;;;;5049307;28;20255;-60
2023/02/07 13:50:16;;;;;;;1.63;1.50;;;;;;;;;;5037200;28;20224;-63
2023/02/07 13:52:43;;;;;;;1.60;1.60;;;;;;;;;;5059058;28;20224;-63
2023/02/07 13:55:15;;;;;;;0.30;0.30;;;;;;;;;;5034527;28;20232;-63
2023/02/07 14:00:28;;;;;;;0.30;0.30;;;;;;;;;;5037004;28;20518;-62
2023/02/07 14:02:56;;;;;;;3.07;2.97;;;;;;;;;;5057402;28;20240;-62
2023/02/07 14:05:24;;;;;;;1.33;1.23;;;;;;;;;;5036608;28;20208;-44
2023/02/07 14:07:54;;;;;;;0.30;0.30;;;;;;;;;;5058025;28;20224;-66
2023/02/07 14:10:35;;;;;;;0.43;0.43;;;;;;;;;;5036231;28;20200;-60
2023/02/07 14:13:02;;;;;;;0.30;0.30;;;;;;;;;;5053322;28;20383;-59
2023/02/07 14:15:47;;;;;;;1.50;1.40;;;;;;;;;;5037232;28;20256;-60
2023/02/07 14:18:28;;;;;;;0.63;0.63;;;;;;;;;;5054688;28;20237;-60
2023/02/07 14:21:01;;;;;;;1.30;1.30;;;;;;;;;;5039621;28;20242;-53
2023/02/07 14:23:49;;;;;;;2.13;2.10;;;;;;;;;;5053309;28;20210;-62
2023/02/07 14:26:30;;;;;;;0.30;0.30;;;;;;;;;;5042730;28;20312;-62
2023/02/07 14:29:12;;;;;;;0.30;0.30;;;;;;;;;;5048033;28;20217;-61
2023/02/07 14:31:40;;;;;;;0.30;0.30;;;;;;;;;;5045287;28;20304;-61
2023/02/07 14:34:10;;;;;;;1.57;1.57;;;;;;;;;;5047556;28;20272;-61
2023/02/07 14:36:39;;;;;;;4.33;4.23;;;;;;;;;;5045268;28;20248;-61
2023/02/07 14:39:20;;;;;;;0.70;0.70;;;;;;;;;;5047695;28;20208;-60
2023/02/07 14:41:47;;;;;;;1.43;1.43;;;;;;;;;;5046562;28;20239;-61
2023/02/07 14:44:22;;;;;;;1.40;1.40;;;;;;;;;;5046433;28;20278;-62
2023/02/07 14:46:51;;;;;;;2.33;2.23;;;;;;;;;;5046768;28;20306;-61
2023/02/07 14:49:20;;;;;;;5.43;3.10;;;;;;;;;;5046054;28;20217;-62
2023/02/07 14:51:49;;;;;;;3.83;3.63;;;;;;;;;;5046349;28;20314;-61
2023/02/07 14:54:17;;;;;;;5.50;4.47;;;;;;;;;;5046274;28;20532;-61